Latest Weather Observations for Hobart Airport

IDT60901

Issued at 1:41 pm EST Saturday 29 April 2017 (issued every 10 minutes, with the page automatically refreshed every 10 minutes)

About weather observations | Map of Hobart area stations | Latest observations for Hobart area | Other Formats
Station Details ID: 094008 Name: HOBART AIRPORT Lat: -42.83 Lon: 147.50 Height: 4.0 m
Data from the previous 72 hours. | See also: Recent months at Hobart Airport
Date/Time
EST
Temp
°C
App
Temp
°C
Dew
Point
°C
Rel
Hum
%
Delta-T
°C
Wind Press
QNH
hPa
Press
MSL
hPa
Rain since
9am
mm
Dir  Spd
km/h
Gust
km/h
Spd
kts
Gust
kts
29/01:30pm 17.4 13.0 7.2 51 5.1 S 20 30 11 16 1017.1 1017.1 0.0
29/01:00pm 18.0 11.3 5.4 43 6.1 SW 30 39 16 21 1017.1 1017.1 0.0
29/12:30pm 18.0 11.3 5.4 43 6.1 SW 30 39 16 21 1017.2 1017.2 0.0
29/12:00pm 17.9 11.1 5.3 43 6.1 SW 30 39 16 21 1017.3 1017.3 0.0
29/11:30am 18.1 13.2 5.3 43 6.2 WSW 20 28 11 15 1017.3 1017.3 0.0
29/11:00am 16.7 10.7 5.2 46 5.5 SW 26 35 14 19 1017.2 1017.2 0.0
29/10:30am 16.6 10.7 5.9 49 5.2 SSW 26 41 14 22 1016.8 1016.8 0.0
29/10:00am 16.6 11.0 5.3 47 5.4 SW 24 44 13 24 1016.4 1016.4 0.0
29/09:30am 15.3 11.1 5.7 52 4.6 SW 17 28 9 15 1016.2 1016.2 0.0
29/09:00am 15.2 13.1 6.6 56 4.2 SW 7 11 4 6 1015.9 1015.9 0.0
29/08:30am 14.6 9.2 6.5 58 3.9 SW 24 35 13 19 1015.3 1015.3 0.0
29/08:00am 14.6 11.3 6.5 58 3.9 SW 13 17 7 9 1014.8 1014.8 0.0
29/07:30am 13.7 11.2 6.6 62 3.4 SW 9 13 5 7 1014.2 1014.2 0.0
29/07:00am 13.3 11.7 6.4 63 3.3 NW 4 7 2 4 1013.8 1013.8 0.0
29/06:30am 11.5 10.9 7.3 75 2.0 CALM 0 0 0 0 1013.5 1013.5 0.0
29/06:00am 11.1 9.7 7.4 78 1.8 SSE 4 7 2 4 1013.1 1013.1 0.0
29/05:30am 13.9 10.9 5.9 58 3.8 W 11 13 6 7 1012.6 1012.6 0.0
29/05:00am 14.1 10.0 6.2 59 3.8 WNW 17 24 9 13 1012.1 1012.1 0.0
29/04:30am 14.6 9.5 5.8 55 4.2 NW 22 30 12 16 1011.7 1011.7 0.0
29/04:00am 13.6 9.0 6.3 61 3.5 WNW 20 24 11 13 1011.4 1011.4 0.0
29/03:30am 12.2 11.5 8.6 78 1.8 E 2 9 1 5 1011.1 1011.1 0.0
29/03:00am 11.8 10.8 8.8 82 1.5 NW 4 7 2 4 1011.0 1011.0 0.0
29/02:30am 13.5 11.6 9.0 74 2.3 S 9 9 5 5 1010.8 1010.8 0.0
29/02:00am 15.0 11.7 9.4 69 2.9 SSW 17 26 9 14 1011.2 1011.2 0.0
29/01:30am 15.7 13.2 8.4 62 3.7 S 11 17 6 9 1010.9 1010.9 0.0
29/01:00am 16.3 12.2 8.0 58 4.2 WNW 19 30 10 16 1010.4 1010.4 0.0
29/12:30am 16.8 10.6 7.7 55 4.6 NW 30 39 16 21 1010.1 1010.1 0.0
29/12:00am 16.3 11.3 8.0 58 4.2 NW 24 35 13 19 1010.0 1010.0 0.0
 
Date/Time
EST
Temp
°C
App
Temp
°C
Dew
Point
°C
Rel
Hum
%
Delta-T
°C
Wind Press
QNH
hPa
Press
MSL
hPa
Rain since
9am
mm
Dir  Spd
km/h
Gust
km/h
Spd
kts
Gust
kts
28/11:30pm 16.0 10.6 8.1 59 4.0 NW 26 37 14 20 1010.2 1010.2 0.0
28/11:07pm 16.1 10.4 8.2 59 4.0 NW 28 46 15 25 1010.3 1010.3 0.0
28/11:00pm 15.9 11.0 8.4 61 3.8 NW 24 33 13 18 1010.2 1010.2 0.0
28/10:30pm 15.9 11.3 8.2 60 3.9 NW 22 33 12 18 1010.3 1010.3 0.0
28/10:00pm 15.5 10.6 8.4 62 3.6 NNW 24 30 13 16 1010.4 1010.4 0.0
28/09:30pm 15.2 10.7 8.5 64 3.4 NNW 22 32 12 17 1010.5 1010.5 0.0
28/09:00pm 15.4 10.5 8.5 63 3.5 NNW 24 30 13 16 1010.6 1010.6 0.0
28/08:30pm 15.3 9.9 8.2 62 3.6 NW 26 32 14 17 1010.9 1010.9 0.0
28/08:00pm 15.7 10.7 8.0 60 3.9 NNW 24 32 13 17 1010.7 1010.7 0.0
28/07:30pm 15.9 12.1 7.5 57 4.2 N 17 24 9 13 1011.0 1011.0 0.0
28/07:00pm 15.6 12.5 7.1 57 4.2 N 13 22 7 12 1011.0 1011.0 0.0
28/06:30pm 15.6 12.3 6.6 55 4.4 NNW 13 19 7 10 1011.1 1011.1 0.0
28/06:00pm 15.7 11.0 6.2 53 4.6 NW 20 28 11 15 1011.2 1011.2 0.0
28/05:30pm 15.5 8.5 6.0 53 4.6 NW 32 35 17 19 1010.9 1010.9 0.0
28/05:00pm 16.1 9.3 5.2 48 5.2 NW 30 37 16 20 1010.6 1010.6 0.0
28/04:30pm 17.5 10.1 3.9 40 6.4 WNW 32 39 17 21 1010.7 1010.7 0.0
28/04:00pm 18.3 11.7 4.2 39 6.7 WNW 28 41 15 22 1011.0 1011.0 0.0
28/03:30pm 18.8 12.3 4.7 39 6.8 WNW 28 41 15 22 1010.8 1010.8 0.0
28/03:00pm 19.3 12.9 5.4 40 6.8 NW 28 37 15 20 1011.0 1011.0 0.0
28/02:30pm 19.1 13.5 5.4 40 6.7 NW 24 35 13 19 1010.7 1010.7 0.0
28/02:00pm 19.3 14.0 6.8 44 6.3 NW 24 33 13 18 1011.4 1011.4 0.0
28/01:30pm 17.6 10.8 7.0 50 5.3 NW 32 50 17 27 1011.3 1011.3 0.0
28/01:00pm 18.3 11.6 7.4 49 5.5 NW 32 41 17 22 1011.8 1011.8 0.0
28/12:30pm 18.5 11.7 6.7 46 5.9 NW 32 39 17 21 1012.2 1012.2 0.0
28/12:03pm 17.9 11.8 6.4 47 5.7 NNW 28 48 15 26 1012.1 1012.1 0.0
28/12:00pm 17.3 11.6 6.6 49 5.3 NNW 26 37 14 20 1012.1 1012.1 0.0
28/11:30am 16.3 11.9 7.5 56 4.4 N 20 32 11 17 1013.2 1013.2 0.0
28/11:00am 16.4 13.0 7.6 56 4.4 NNW 15 24 8 13 1013.8 1013.8 0.0
28/10:30am 15.5 11.6 7.2 57 4.1 NNW 17 28 9 15 1014.1 1014.1 0.0
28/10:00am 15.4 11.5 7.3 58 4.0 NNW 17 28 9 15 1014.4 1014.4 0.0
28/09:30am 14.8 11.0 7.5 61 3.6 NNW 17 26 9 14 1014.6 1014.6 0.0
28/09:00am 15.2 10.7 6.8 57 4.1 NW 20 30 11 16 1014.6 1014.6 0.0
28/08:30am 14.4 11.4 7.5 63 3.4 NNW 13 19 7 10 1014.8 1014.8 0.0
28/08:00am 14.2 10.3 7.3 63 3.4 NNW 17 26 9 14 1014.8 1014.8 0.0
28/07:30am 12.7 9.7 7.6 71 2.5 NNW 13 17 7 9 1014.9 1014.9 0.0
28/07:00am 13.0 7.9 7.5 69 2.7 NW 24 30 13 16 1014.6 1014.6 0.0
28/06:30am 13.0 8.7 7.2 68 2.8 NNW 19 28 10 15 1014.5 1014.5 0.0
28/06:00am 12.8 8.5 7.2 69 2.7 NNW 19 28 10 15 1014.7 1014.7 0.0
28/05:30am 13.4 9.9 7.0 65 3.1 NW 15 20 8 11 1014.6 1014.6 0.0
28/05:00am 13.2 9.6 6.8 65 3.1 NW 15 20 8 11 1014.5 1014.5 0.0
28/04:30am 13.4 9.1 7.0 65 3.1 NW 19 26 10 14 1014.0 1014.0 0.0
28/04:00am 13.4 9.5 7.2 66 3.0 NW 17 28 9 15 1014.3 1014.3 0.0
28/03:30am 13.6 9.2 7.2 65 3.1 NW 20 32 11 17 1014.0 1014.0 0.0
28/03:00am 14.1 9.8 6.9 62 3.5 NW 19 26 10 14 1013.9 1013.9 0.0
28/02:30am 14.0 9.6 7.3 64 3.3 NW 20 30 11 16 1014.0 1014.0 0.0
28/02:00am 13.7 9.3 7.6 66 3.0 NNW 20 30 11 16 1013.9 1013.9 0.0
28/01:30am 13.1 8.7 7.6 69 2.7 NNW 20 30 11 16 1013.8 1013.8 0.0
28/01:00am 12.9 8.5 7.4 69 2.7 NNW 20 28 11 15 1013.6 1013.6 0.0
28/12:30am 13.5 8.6 6.9 64 3.2 NNW 22 30 12 16 1013.6 1013.6 0.0
28/12:00am 13.2 8.3 6.8 65 3.1 NNW 22 33 12 18 1013.7 1013.7 0.0
 
Date/Time
EST
Temp
°C
App
Temp
°C
Dew
Point
°C
Rel
Hum
%
Delta-T
°C
Wind Press
QNH
hPa
Press
MSL
hPa
Rain since
9am
mm
Dir  Spd
km/h
Gust
km/h
Spd
kts
Gust
kts
27/11:30pm 13.1 7.4 6.6 64 3.1 NW 26 35 14 19 1013.8 1013.8 0.0
27/11:00pm 13.2 7.8 6.5 64 3.2 NNW 24 32 13 17 1014.0 1014.0 0.0
27/10:30pm 13.1 7.3 6.4 64 3.2 NW 26 35 14 19 1014.1 1014.1 0.0
27/10:00pm 13.3 8.2 5.9 61 3.5 NNW 22 33 12 18 1014.1 1014.1 0.0
27/09:30pm 13.6 8.4 5.5 58 3.8 NW 22 33 12 18 1014.2 1014.2 0.0
27/09:00pm 12.9 8.3 5.4 60 3.5 NNW 19 30 10 16 1014.1 1014.1 0.0
27/08:30pm 12.8 8.5 5.3 60 3.5 N 17 26 9 14 1013.8 1013.8 0.0
27/08:00pm 12.1 8.3 5.7 65 3.0 N 15 20 8 11 1014.3 1014.3 0.0
27/07:30pm 12.4 7.7 5.0 60 3.4 NNW 19 26 10 14 1014.8 1014.8 0.0
27/07:00pm 12.6 7.7 4.2 56 3.8 NNW 19 28 10 15 1014.6 1014.6 0.0
27/06:30pm 12.3 8.2 4.1 57 3.7 NNW 15 28 8 15 1015.0 1015.0 0.0
27/06:00pm 11.9 8.3 4.9 62 3.2 N 13 19 7 10 1014.9 1014.9 0.0
27/05:30pm 12.0 7.5 4.0 58 3.6 NNW 17 22 9 12 1015.0 1015.0 0.0
27/05:00pm 12.5 6.9 3.3 53 4.1 NW 22 35 12 19 1015.5 1015.5 0.0
27/04:30pm 12.7 6.3 3.0 51 4.3 WNW 26 35 14 19 1015.6 1015.6 0.0
27/04:00pm 12.9 7.2 2.6 49 4.5 WNW 22 28 12 15 1015.8 1015.8 0.0
27/03:30pm 13.2 7.4 2.2 47 4.8 WNW 22 30 12 16 1015.8 1015.8 0.0
27/03:00pm 13.6 7.3 1.8 44 5.1 NW 24 30 13 16 1015.8 1015.8 0.0
27/02:30pm 13.4 8.0 2.2 46 4.9 WNW 20 32 11 17 1016.1 1016.1 0.0
27/02:00pm 13.3 8.4 1.7 45 5.0 WNW 17 24 9 13 1016.0 1016.0 0.0
27/01:30pm 13.2 7.9 1.6 45 5.0 NW 19 26 10 14 1016.3 1016.3 0.0
27/01:00pm 13.1 7.2 1.4 45 5.0 NW 22 30 12 16 1017.0 1017.0 0.0
27/12:30pm 12.8 7.8 1.3 45 4.9 NW 17 24 9 13 1017.8 1017.8 0.0
27/12:00pm 11.9 6.9 1.2 48 4.5 NW 17 26 9 14 1018.2 1018.2 0.0
27/11:30am 12.4 8.1 0.7 44 4.9 NW 13 17 7 9 1018.6 1018.6 0.0
27/11:00am 11.7 6.9 -0.1 44 4.8 W 15 28 8 15 1019.2 1019.2 0.0
27/10:30am 11.0 5.5 0.5 48 4.3 NW 19 26 10 14 1019.1 1019.1 0.0
27/10:00am 10.0 4.5 1.9 57 3.4 NW 20 28 11 15 1019.3 1019.3 0.0
27/09:30am 9.3 4.5 2.4 62 2.9 NW 17 26 9 14 1019.5 1019.5 0.0
27/09:00am 7.7 3.6 2.1 67 2.3 N 13 19 7 10 1019.3 1019.3 0.2
27/08:30am 6.6 2.4 1.9 72 1.9 NW 13 19 7 10 1019.5 1019.5 0.2
27/08:00am 5.4 0.8 1.3 75 1.6 NW 15 20 8 11 1019.2 1019.2 0.2
27/07:30am 4.7 -0.3 1.4 79 1.3 NW 17 19 9 10 1019.1 1019.1 0.2
27/07:00am 4.4 -0.3 1.0 78 1.3 NW 15 19 8 10 1019.0 1019.0 0.2
27/06:30am 4.3 0.4 0.9 78 1.3 NNW 11 15 6 8 1019.0 1019.0 0.2
27/06:00am 4.4 -0.3 0.8 77 1.4 NW 15 17 8 9 1019.0 1019.0 0.2
27/05:30am 4.7 0.5 1.4 79 1.3 NW 13 15 7 8 1019.0 1019.0 0.2
27/05:00am 4.6 0.4 1.8 82 1.1 NW 13 15 7 8 1018.9 1018.9 0.2
27/04:30am 4.9 0.6 1.3 77 1.4 NW 13 17 7 9 1018.5 1018.5 0.2
27/04:00am 5.2 0.6 1.4 76 1.5 NW 15 17 8 9 1018.2 1018.2 0.2
27/03:30am 5.4 0.9 1.9 78 1.4 NW 15 19 8 10 1018.2 1018.2 0.2
27/03:00am 5.4 1.9 1.1 74 1.7 NW 9 15 5 8 1018.1 1018.1 0.2
27/02:30am 5.3 1.5 1.8 78 1.4 NW 11 15 6 8 1018.3 1018.3 0.2
27/02:00am 4.1 0.5 0.4 77 1.4 NW 9 13 5 7 1018.4 1018.4 0.2
27/01:30am 5.6 1.6 0.7 71 1.9 W 11 13 6 7 1018.4 1018.4 0.2
27/01:00am 5.7 2.1 0.3 68 2.1 W 9 15 5 8 1018.1 1018.1 0.2
27/12:30am 6.0 2.1 0.9 70 2.0 WNW 11 13 6 7 1018.2 1018.2 0.2
27/12:00am 6.1 1.7 0.1 65 2.3 W 13 17 7 9 1017.7 1017.7 0.2
 
Date/Time
EST
Temp
°C
App
Temp
°C
Dew
Point
°C
Rel
Hum
%
Delta-T
°C
Wind Press
QNH
hPa
Press
MSL
hPa
Rain since
9am
mm
Dir  Spd
km/h
Gust
km/h
Spd
kts
Gust
kts
26/11:30pm 5.6 2.0 0.4 69 2.0 W 9 13 5 7 1017.5 1017.5 0.2
26/11:00pm 6.3 2.4 1.3 70 2.0 NW 11 13 6 7 1017.4 1017.4 0.2
26/10:30pm 6.3 2.5 1.6 72 1.9 WNW 11 15 6 8 1017.5 1017.5 0.2
26/10:00pm 7.5 3.0 2.2 69 2.2 WSW 15 19 8 10 1017.3 1017.3 0.2
26/09:30pm 7.6 2.1 2.0 67 2.3 SW 20 28 11 15 1017.1 1017.1 0.2
26/09:00pm 7.9 3.0 1.8 65 2.5 SW 17 28 9 15 1016.8 1016.8 0.2
26/08:30pm 7.7 2.7 1.3 64 2.6 SW 17 28 9 15 1016.4 1016.4 0.2
26/08:00pm 7.9 1.3 2.1 67 2.4 SW 26 35 14 19 1016.0 1016.0 0.2
26/07:30pm 8.3 2.2 2.6 67 2.4 SW 24 35 13 19 1015.4 1015.4 0.2
26/07:00pm 7.8 2.7 2.8 70 2.1 SW 19 30 10 16 1015.0 1015.0 0.2
26/06:30pm 7.8 2.1 2.8 70 2.1 SW 22 30 12 16 1014.4 1014.4 0.2
26/06:00pm 8.0 3.2 2.8 70 2.2 SW 17 26 9 14 1014.0 1014.0 0.2
26/05:30pm 8.1 3.4 2.9 70 2.2 SSW 17 30 9 16 1013.4 1013.4 0.2
26/05:00pm 8.4 1.1 2.2 65 2.6 SSW 30 48 16 26 1012.8 1012.8 0.2
26/04:35pm 9.0 1.1 2.1 62 2.9 SSW 33 52 18 28 1012.5 1012.5 0.2
26/04:30pm 8.8 0.4 1.8 61 2.9 SW 35 52 19 28 1012.3 1012.3 0.2
26/04:23pm 8.9 1.6 2.5 64 2.7 SW 30 50 16 27 1012.1 1012.1 0.2
26/04:00pm 9.4 3.3 2.6 62 2.9 SW 24 30 13 16 1011.6 1011.6 0.2
26/03:30pm 8.6 0.5 3.2 69 2.3 SW 35 48 19 26 1011.3 1011.3 0.2
26/03:00pm 11.0 3.4 2.7 56 3.6 SSW 32 43 17 23 1010.6 1010.6 0.2
26/02:40pm 10.7 3.7 1.7 53 3.8 SSW 28 48 15 26 1010.5 1010.5 0.2
26/02:30pm 9.8 3.9 2.0 58 3.3 SSW 22 32 12 17 1010.4 1010.4 0.2
26/02:12pm 10.0 2.4 2.8 61 3.1 SSW 32 50 17 27 1010.2 1010.2 0.2
26/02:00pm 10.9 5.2 3.1 58 3.4 SSW 22 32 12 17 1009.8 1009.8 0.2

Latest Capital City Observations: Canberra | Sydney | Melbourne | Brisbane | Adelaide | Perth | Hobart | Darwin

Other Formats:

Comma delimited format used in spreadsheet applications
http://www.bom.gov.au/fwo/IDT60901/IDT60901.94975.axf

JavaScript Object Notation format (JSON) in row-major order
http://www.bom.gov.au/fwo/IDT60901/IDT60901.94975.json